Time;durP1;ratioP1;P1;durP2;ratioP2;P2;SDS_P1;SDS_P2;PMS_P1;PMS_P2;Temp;Humidity;BMP_temperature;BMP_pressure;BME280_temperature;BME280_humidity;BME280_pressure;Samples;Min_cycle;Max_cycle;Signal;HPM_P1;HPM_P2
2022/06/21 00:01:24;;;;;;;6.30;5.07;;;;;;;18.97;100.00;96182.16;5030434;28;105962;-64
2022/06/21 00:03:54;;;;;;;7.57;5.90;;;;;;;18.87;100.00;96187.81;5030998;28;101971;-64
2022/06/21 00:06:26;;;;;;;6.37;5.47;;;;;;;18.81;100.00;96186.31;5032318;27;102940;-64
2022/06/21 00:08:54;;;;;;;6.50;5.90;;;;;;;18.87;100.00;96174.34;5035549;27;102719;-65
2022/06/21 00:11:25;;;;;;;6.30;5.50;;;;;;;18.77;100.00;96173.78;5032391;28;101671;-64
2022/06/21 00:13:52;;;;;;;6.63;5.57;;;;;;;18.72;100.00;96177.41;5031539;27;102697;-64
2022/06/21 00:16:21;;;;;;;8.50;5.83;;;;;;;18.78;100.00;96175.38;5032414;27;101845;-64
2022/06/21 00:18:49;;;;;;;5.77;5.27;;;;;;;18.68;100.00;96191.78;5030960;28;104110;-64
2022/06/21 00:21:19;;;;;;;5.20;4.77;;;;;;;18.61;100.00;96186.81;4997078;28;104768;-64
2022/06/21 00:23:50;;;;;;;7.00;5.17;;;;;;;18.60;100.00;96184.44;5031958;28;101905;-64
2022/06/21 00:26:19;;;;;;;6.40;5.20;;;;;;;18.61;100.00;96186.03;5030908;28;105303;-64
2022/06/21 00:28:46;;;;;;;6.90;5.00;;;;;;;18.64;100.00;96182.72;5031233;28;102796;-64
2022/06/21 00:31:18;;;;;;;6.77;5.07;;;;;;;18.61;100.00;96186.81;5035464;28;102092;-64
2022/06/21 00:33:46;;;;;;;5.70;5.10;;;;;;;18.62;100.00;96187.59;5030132;28;105796;-64
2022/06/21 00:36:21;;;;;;;6.73;5.00;;;;;;;18.67;100.00;96182.09;5030365;28;102259;-64
2022/06/21 00:38:50;;;;;;;6.93;5.30;;;;;;;18.68;100.00;96189.06;5030865;28;105258;-64
2022/06/21 00:41:20;;;;;;;4.80;4.30;;;;;;;18.66;100.00;96185.91;5031088;27;102981;-64
2022/06/21 00:43:52;;;;;;;5.33;4.83;;;;;;;18.57;100.00;96191.22;5031691;28;101780;-64
2022/06/21 00:46:31;;;;;;;6.00;5.40;;;;;;;18.55;100.00;96187.25;5032096;28;102616;-64
2022/06/21 00:49:00;;;;;;;5.57;4.93;;;;;;;18.53;100.00;96189.47;5031037;27;102589;-64
2022/06/21 00:51:35;;;;;;;4.80;4.20;;;;;;;18.48;100.00;96190.34;5030195;28;102327;-64
2022/06/21 00:54:11;;;;;;;5.60;4.27;;;;;;;18.46;100.00;96189.06;5034448;28;102439;-64
2022/06/21 00:56:42;;;;;;;5.00;4.50;;;;;;;18.39;100.00;96183.31;5031930;27;101692;-64
2022/06/21 00:59:22;;;;;;;4.47;4.07;;;;;;;18.49;100.00;96185.78;5030360;28;105057;-64
2022/06/21 01:01:51;;;;;;;5.07;3.97;;;;;;;18.45;100.00;96200.94;5030650;28;102650;-64
2022/06/21 01:04:23;;;;;;;5.03;3.27;;;;;;;18.45;100.00;96198.25;5031460;28;101972;-64
2022/06/21 01:06:53;;;;;;;4.50;3.57;;;;;;;18.52;100.00;96193.25;5064396;27;105059;-64
2022/06/21 01:09:27;;;;;;;3.00;2.80;;;;;;;18.48;100.00;96187.66;5030951;28;102873;-64
2022/06/21 01:11:59;;;;;;;3.40;3.10;;;;;;;18.52;100.00;96190.56;5031591;28;101962;-64
2022/06/21 01:14:28;;;;;;;4.27;3.03;;;;;;;18.48;100.00;96189.56;5031377;28;102439;-64
2022/06/21 01:16:56;;;;;;;3.53;3.10;;;;;;;18.41;100.00;96189.97;5032606;28;105551;-64
2022/06/21 01:19:33;;;;;;;3.13;2.83;;;;;;;18.44;100.00;96191.28;5031301;28;102869;-64
2022/06/21 01:22:07;;;;;;;3.30;3.00;;;;;;;18.40;100.00;96193.78;5030644;27;102599;-64
2022/06/21 01:24:42;;;;;;;3.37;3.00;;;;;;;18.33;100.00;96200.69;5029652;28;101838;-64
2022/06/21 01:27:10;;;;;;;3.97;3.20;;;;;;;18.35;100.00;96203.84;5031479;28;102967;-64
2022/06/21 01:29:38;;;;;;;3.07;2.87;;;;;;;18.33;100.00;96206.06;5030283;28;103157;-64
2022/06/21 01:32:07;;;;;;;3.40;3.10;;;;;;;18.27;100.00;96199.97;5029481;28;101810;-64
2022/06/21 01:34:34;;;;;;;3.43;3.00;;;;;;;18.29;100.00;96202.34;5031104;28;102771;-64
2022/06/21 01:37:07;;;;;;;3.40;3.10;;;;;;;18.29;100.00;96200.47;5029146;28;104364;-64
2022/06/21 01:39:42;;;;;;;3.37;3.13;;;;;;;18.21;100.00;96193.09;5034404;28;101757;-64
2022/06/21 01:42:15;;;;;;;4.37;2.83;;;;;;;18.23;100.00;96198.19;5028947;28;103079;-64
2022/06/21 01:44:47;;;;;;;3.03;2.80;;;;;;;18.11;100.00;96197.91;5030683;28;101873;-64
2022/06/21 01:47:16;;;;;;;4.87;2.83;;;;;;;18.08;100.00;96193.13;5029510;28;103809;-64
2022/06/21 01:49:50;;;;;;;3.43;3.07;;;;;;;18.01;100.00;96188.16;5030087;28;102652;-64
2022/06/21 01:52:21;;;;;;;3.53;3.23;;;;;;;18.02;100.00;96194.31;5030871;28;101996;-64
2022/06/21 01:54:54;;;;;;;3.63;3.33;;;;;;;18.02;100.00;96191.63;5030586;28;102463;-64
2022/06/21 01:57:24;;;;;;;3.37;3.10;;;;;;;17.92;100.00;96189.97;5028818;28;105949;-64
2022/06/21 01:59:52;;;;;;;3.73;3.33;;;;;;;17.94;100.00;96192.34;5033899;27;101804;-65
2022/06/21 02:02:23;;;;;;;3.37;3.07;;;;;;;18.03;100.00;96191.34;5029685;28;102893;-64
2022/06/21 02:04:55;;;;;;;3.40;3.10;;;;;;;18.02;100.00;96189.75;5030773;27;101786;-64
2022/06/21 02:07:27;;;;;;;3.60;3.30;;;;;;;17.92;100.00;96189.97;5029800;28;102715;-64
2022/06/21 02:10:01;;;;;;;4.30;3.90;;;;;;;17.85;100.00;96191.47;5030089;28;103171;-64
2022/06/21 02:12:31;;;;;;;4.93;3.67;;;;;;;17.67;100.00;96189.69;5030852;28;101665;-64
2022/06/21 02:15:03;;;;;;;4.30;3.90;;;;;;;17.66;100.00;96188.09;5030557;27;103479;-64
2022/06/21 02:17:34;;;;;;;4.23;3.90;;;;;;;17.70;100.00;96191.75;5030003;28;102759;-64
2022/06/21 02:20:06;;;;;;;4.03;3.40;;;;;;;17.75;100.00;96191.66;5030265;28;101755;-64
2022/06/21 02:22:35;;;;;;;3.70;3.40;;;;;;;17.64;100.00;96193.78;5033408;28;102521;-64
2022/06/21 02:25:05;;;;;;;4.67;3.37;;;;;;;17.53;100.00;96184.31;5030225;28;101878;-64
2022/06/21 02:27:36;;;;;;;3.33;3.03;;;;;;;17.37;100.00;96187.53;5030505;27;102375;-64
2022/06/21 02:30:08;;;;;;;3.20;2.90;;;;;;;17.27;100.00;96182.38;5029711;27;102537;-64
2022/06/21 02:32:39;;;;;;;3.37;3.03;;;;;;;17.21;100.00;96181.66;5030437;28;102030;-65
2022/06/21 02:35:15;;;;;;;3.43;3.13;;;;;;;17.13;100.00;96179.66;5030117;27;102302;-64
2022/06/21 02:37:45;;;;;;;4.63;3.10;;;;;;;17.09;100.00;96177.84;5029732;28;102820;-64
2022/06/21 02:40:20;;;;;;;4.23;2.93;;;;;;;17.08;100.00;96170.91;5028809;28;101811;-64
2022/06/21 02:42:52;;;;;;;3.93;2.80;;;;;;;17.09;100.00;96180.53;5029861;28;102968;-64
2022/06/21 02:45:26;;;;;;;2.70;2.50;;;;;;;17.14;100.00;96177.75;5033019;28;102821;-64
2022/06/21 02:47:55;;;;;;;3.10;2.90;;;;;;;17.19;100.00;96175.00;5028771;28;103832;-64
2022/06/21 02:50:35;;;;;;;3.40;2.90;;;;;;;17.26;100.00;96180.75;5027940;28;105514;-65
2022/06/21 02:53:06;;;;;;;3.20;2.77;;;;;;;17.26;100.00;96180.75;5030116;28;101854;-64
2022/06/21 02:55:40;;;;;;;3.60;2.97;;;;;;;17.27;100.00;96180.47;5030181;28;102604;-64
2022/06/21 02:58:16;;;;;;;3.10;2.60;;;;;;;17.25;100.00;96179.19;5029367;27;102799;-64
2022/06/21 03:00:43;;;;;;;2.60;2.40;;;;;;;17.15;100.00;96169.41;5030042;28;101727;-64
2022/06/21 03:03:16;;;;;;;2.63;2.50;;;;;;;17.08;100.00;96169.00;5028200;28;103515;-64
2022/06/21 03:05:44;;;;;;;2.87;2.67;;;;;;;17.12;100.00;96174.59;5029450;28;102773;-64
2022/06/21 03:08:11;;;;;;;2.70;2.50;;;;;;;17.11;100.00;96167.63;5033397;28;101919;-64
2022/06/21 03:10:45;;;;;;;2.70;2.30;;;;;;;17.12;100.00;96164.63;5027452;28;105939;-64
2022/06/21 03:13:18;;;;;;;2.90;2.70;;;;;;;17.11;100.00;96163.03;5029881;28;101696;-64
2022/06/21 03:15:51;;;;;;;4.60;2.60;;;;;;;17.12;100.00;96174.59;5029889;28;102316;-64
2022/06/21 03:18:22;;;;;;;3.63;2.70;;;;;;;17.08;100.00;96177.06;5029521;27;104249;-64
2022/06/21 03:20:51;;;;;;;3.40;2.77;;;;;;;17.16;100.00;96178.28;5031573;28;101837;-64
2022/06/21 03:23:21;;;;;;;2.90;2.40;;;;;;;17.04;100.00;96172.56;5033106;28;102501;-64
2022/06/21 03:25:51;;;;;;;4.03;2.43;;;;;;;17.05;100.00;96176.88;5030932;28;104309;-64
2022/06/21 03:28:33;;;;;;;2.50;2.30;;;;;;;16.96;100.00;96187.47;5033240;28;101800;-65
2022/06/21 03:31:08;;;;;;;2.50;2.10;;;;;;;16.98;100.00;96187.19;5036086;27;101671;-64
2022/06/21 03:33:38;;;;;;;2.47;2.27;;;;;;;16.90;100.00;96199.41;5032908;28;101708;-64
2022/06/21 03:36:08;;;;;;;2.70;2.50;;;;;;;16.90;100.00;96198.63;5031669;28;103617;-64
2022/06/21 03:38:38;;;;;;;2.87;2.33;;;;;;;16.98;100.00;96201.44;5031002;28;105382;-64
2022/06/21 03:43:58;;;;;;;3.17;2.67;;;;;;;16.93;100.00;96204.19;5032926;27;102764;-64
2022/06/21 03:47:04;;;;;;;2.30;2.20;;;;;;;17.01;100.00;96203.50;5032683;28;103113;-64
2022/06/21 03:49:54;;;;;;;2.70;2.43;;;;;;;16.99;100.00;96207.56;5031880;28;101805;-64
2022/06/21 03:55:25;;;;;;;2.33;2.13;;;;;;;17.09;100.00;96215.47;5033813;28;101960;-65
2022/06/21 03:57:58;;;;;;;2.10;1.90;;;;;;;16.93;100.00;96209.56;5033144;28;102354;-64
2022/06/21 04:00:31;;;;;;;1.90;1.80;;;;;;;16.83;100.00;96211.59;5031009;28;103705;-64
2022/06/21 04:03:05;;;;;;;3.83;1.90;;;;;;;16.68;100.00;96212.66;5030965;28;101890;-64
2022/06/21 04:05:37;;;;;;;2.07;1.40;;;;;;;16.66;100.00;96209.47;5032917;28;101953;-64
2022/06/21 04:08:09;;;;;;;1.90;1.60;;;;;;;16.61;100.00;96206.06;5031088;28;105285;-64
2022/06/21 04:10:43;;;;;;;1.70;1.60;;;;;;;16.76;100.00;96211.19;5032878;27;101728;-64
2022/06/21 04:13:15;;;;;;;1.70;1.60;;;;;;;16.84;100.00;96199.81;5032376;27;102516;-64
2022/06/21 04:15:50;;;;;;;2.73;1.90;;;;;;;16.87;100.00;96207.25;5035337;28;102644;-65
2022/06/21 04:18:21;;;;;;;3.03;2.20;;;;;;;16.76;100.00;96201.25;5030742;28;105121;-64
2022/06/21 04:20:57;;;;;;;2.40;2.20;;;;;;;16.85;100.00;96204.06;5030236;28;104658;-64
2022/06/21 04:23:33;;;;;;;1.80;1.70;;;;;;;16.76;100.00;96214.69;5031127;28;102458;-64
2022/06/21 04:26:06;;;;;;;2.13;1.87;;;;;;;16.78;100.00;96209.03;5032479;27;102849;-65
2022/06/21 04:28:39;;;;;;;4.50;1.50;;;;;;;16.83;100.00;96211.59;5031647;28;102555;-64
2022/06/21 04:31:13;;;;;;;2.60;1.73;;;;;;;16.96;100.00;96218.94;5031529;28;101752;-64
2022/06/21 04:33:48;;;;;;;3.47;1.70;;;;;;;17.01;100.00;96216.16;5030790;28;105181;-64
2022/06/21 04:36:20;;;;;;;2.43;2.20;;;;;;;16.83;100.00;96211.59;5030242;28;104354;-64
2022/06/21 04:38:55;;;;;;;1.87;1.77;;;;;;;16.89;100.00;96211.25;5035618;28;102053;-64
2022/06/21 04:41:29;;;;;;;1.60;1.50;;;;;;;16.85;100.00;96196.78;5029925;28;106064;-64
2022/06/21 04:44:01;;;;;;;2.03;1.50;;;;;;;16.83;100.00;96195.50;5031903;27;101746;-64
2022/06/21 04:46:35;;;;;;;1.63;1.40;;;;;;;16.83;100.00;96198.19;5030737;28;104498;-64
2022/06/21 04:49:11;;;;;;;2.20;1.57;;;;;;;16.86;100.00;96192.22;5030960;27;103017;-64
2022/06/21 04:51:44;;;;;;;1.53;1.43;;;;;;;16.81;100.00;96195.81;5032044;28;101659;-64
2022/06/21 04:54:20;;;;;;;1.53;1.40;;;;;;;16.84;100.00;96199.81;5031459;28;102824;-64
2022/06/21 04:56:56;;;;;;;1.37;1.27;;;;;;;16.86;100.00;96197.59;5030976;28;102893;-65
2022/06/21 04:59:28;;;;;;;3.37;1.50;;;;;;;16.82;100.00;96199.28;5031692;27;101796;-64
2022/06/21 05:01:58;;;;;;;1.50;1.40;;;;;;;16.87;100.00;96204.56;5034210;28;102334;-64
2022/06/21 05:04:28;;;;;;;2.93;1.40;;;;;;;17.00;100.00;96195.75;5031342;27;102357;-65
2022/06/21 05:06:58;;;;;;;1.60;1.50;;;;;;;17.06;100.00;96208.00;5030298;28;105432;-65
2022/06/21 05:09:28;;;;;;;1.53;1.30;;;;;;;17.14;100.00;96204.63;5029593;28;105698;-65
2022/06/21 05:11:59;;;;;;;1.83;1.00;;;;;;;17.17;100.00;96206.75;5030220;28;101801;-64
2022/06/21 05:14:30;;;;;;;1.43;1.33;;;;;;;17.16;100.00;96203.25;5030104;28;105229;-64
2022/06/21 05:16:59;;;;;;;1.60;1.00;;;;;;;17.11;100.00;96199.88;5028968;28;103898;-64
2022/06/21 05:19:32;;;;;;;1.87;0.97;;;;;;;16.97;100.00;96196.34;5031288;27;102091;-64
2022/06/21 05:22:04;;;;;;;1.17;1.03;;;;;;;16.86;100.00;96198.41;5031236;28;102380;-64
2022/06/21 05:24:32;;;;;;;1.67;1.23;;;;;;;16.83;100.00;96200.88;5033970;27;102690;-64
2022/06/21 05:27:07;;;;;;;1.33;1.10;;;;;;;16.84;100.00;96194.44;5029918;28;103926;-64
2022/06/21 05:29:42;;;;;;;1.87;1.03;;;;;;;16.80;100.00;96198.78;5030038;27;104979;-64
2022/06/21 05:32:16;;;;;;;3.30;1.10;;;;;;;16.76;100.00;96198.56;5031384;28;102067;-64
2022/06/21 05:34:48;;;;;;;2.97;0.90;;;;;;;16.80;100.00;96194.22;5029733;28;103645;-64
2022/06/21 05:37:24;;;;;;;1.00;1.00;;;;;;;16.91;100.00;96195.66;5030040;28;104190;-64
2022/06/21 05:39:54;;;;;;;1.50;1.30;;;;;;;16.83;100.00;96190.13;5029451;28;101924;-64
2022/06/21 05:42:25;;;;;;;1.10;1.00;;;;;;;16.99;100.00;96186.09;5029733;28;102356;-64
2022/06/21 05:44:54;;;;;;;1.93;1.10;;;;;;;16.94;100.00;96200.41;5030456;28;103119;-64
2022/06/21 05:47:27;;;;;;;1.60;1.20;;;;;;;16.77;100.00;96189.41;5034493;27;101750;-64
2022/06/21 05:49:55;;;;;;;1.53;1.10;;;;;;;16.80;100.00;96190.72;5030254;28;103366;-64
2022/06/21 05:52:26;;;;;;;1.93;0.90;;;;;;;16.80;100.00;96188.84;5029339;28;102005;-64
2022/06/21 05:54:58;;;;;;;2.27;1.23;;;;;;;16.82;100.00;96191.22;5029555;28;105191;-64
2022/06/21 05:57:38;;;;;;;2.87;1.20;;;;;;;16.93;100.00;96184.59;5030429;27;103084;-64
2022/06/21 06:00:12;;;;;;;4.17;1.30;;;;;;;16.91;100.00;96184.91;5030729;27;101939;-64
2022/06/21 06:02:49;;;;;;;1.53;1.20;;;;;;;16.99;100.00;96184.22;5030048;28;102858;-64
2022/06/21 06:05:20;;;;;;;2.90;1.30;;;;;;;17.08;100.00;96184.31;5028493;28;103914;-64
2022/06/21 06:07:53;;;;;;;1.50;1.40;;;;;;;17.07;100.00;96196.94;5034523;28;101697;-64
2022/06/21 06:10:23;;;;;;;1.63;1.50;;;;;;;17.21;100.00;96207.72;5030380;27;102511;-64
2022/06/21 06:12:56;;;;;;;3.50;1.30;;;;;;;17.14;100.00;96207.31;5030728;27;102236;-64
2022/06/21 06:15:27;;;;;;;2.77;1.20;;;;;;;17.24;100.00;96207.97;5029074;28;103804;-64
2022/06/21 06:18:01;;;;;;;1.67;1.40;;;;;;;17.31;100.00;96204.84;5028443;28;105409;-64
2022/06/21 06:20:33;;;;;;;2.50;1.57;;;;;;;17.53;100.00;96207.69;5030085;27;101923;-64
2022/06/21 06:23:04;;;;;;;1.77;1.50;;;;;;;17.63;100.00;96202.13;5030659;28;102495;-64
2022/06/21 06:25:36;;;;;;;3.60;1.53;;;;;;;17.72;100.00;96195.75;5029720;28;102639;-64
2022/06/21 06:28:13;;;;;;;2.50;1.60;;;;;;;17.90;100.00;96202.13;5029077;28;101801;-64
2022/06/21 06:30:46;;;;;;;3.23;1.57;;;;;;;18.08;100.00;96201.19;5065886;27;105265;-64
2022/06/21 06:33:20;;;;;;;2.93;1.30;;;;;;;18.29;100.00;96199.66;5029224;28;101805;-64
2022/06/21 06:35:50;;;;;;;2.73;1.40;;;;;;;18.40;100.00;96191.09;5030430;27;102325;-64
2022/06/21 06:38:18;;;;;;;2.27;1.43;;;;;;;18.43;100.00;96189.69;5028229;28;105098;-64
2022/06/21 06:40:49;;;;;;;1.77;1.37;;;;;;;18.57;100.00;96193.09;5028918;28;101762;-64
2022/06/21 06:43:24;;;;;;;3.53;1.20;;;;;;;18.44;100.00;96192.09;5028776;28;103596;-64
2022/06/21 06:45:57;;;;;;;3.57;1.40;;;;;;;18.11;100.00;96203.28;5028236;28;104005;-64
2022/06/21 06:48:30;;;;;;;2.97;1.33;;;;;;;18.26;100.00;96203.75;5030104;28;102224;-64
2022/06/21 06:50:59;;;;;;;2.03;1.43;;;;;;;18.50;100.00;96207.03;5029873;27;102867;-64
2022/06/21 06:53:36;;;;;;;4.53;1.70;;;;;;;18.64;100.00;96206.97;5033382;27;106427;-64
2022/06/21 06:56:05;;;;;;;2.80;1.50;;;;;;;18.48;100.00;96201.13;5032307;28;104056;-64
2022/06/21 06:58:37;;;;;;;3.57;1.50;;;;;;;18.39;100.00;96199.47;5032931;28;103146;-64
2022/06/21 07:01:08;;;;;;;3.57;1.67;;;;;;;18.58;100.00;96202.81;5033729;28;101886;-64
2022/06/21 07:03:40;;;;;;;2.63;1.57;;;;;;;18.85;100.00;96202.69;5033308;27;102813;-64
2022/06/21 07:06:14;;;;;;;4.47;2.00;;;;;;;18.81;100.00;96207.88;5032930;28;102657;-64
2022/06/21 07:08:47;;;;;;;3.77;1.90;;;;;;;19.06;100.00;96199.19;5032093;28;102126;-64
2022/06/21 07:11:21;;;;;;;3.57;1.60;;;;;;;18.75;100.00;96200.25;5033570;28;102392;-64
2022/06/21 07:13:48;;;;;;;3.43;1.60;;;;;;;19.00;100.00;96203.09;5032897;27;103108;-64
2022/06/21 07:16:22;;;;;;;2.30;1.63;;;;;;;18.87;100.00;96200.47;5036378;28;101848;-64
2022/06/21 07:18:53;;;;;;;3.30;1.80;;;;;;;18.93;100.00;96204.63;5032618;28;102878;-64
2022/06/21 07:21:22;;;;;;;4.07;2.07;;;;;;;18.74;100.00;96206.75;5033350;28;101828;-64
2022/06/21 07:23:52;;;;;;;1.73;1.50;;;;;;;19.00;100.00;96210.38;5031773;28;105433;-64
2022/06/21 07:26:25;;;;;;;3.37;1.33;;;;;;;19.34;100.00;96211.41;5031289;28;105473;-64
2022/06/21 07:28:55;;;;;;;4.93;1.80;;;;;;;19.51;100.00;96200.72;5033407;27;101701;-64
2022/06/21 07:31:27;;;;;;;1.87;1.53;;;;;;;19.63;100.00;96209.00;5031713;28;104838;-64
2022/06/21 07:34:00;;;;;;;2.93;1.80;;;;;;;19.74;100.00;96204.94;5032360;27;103245;-64
2022/06/21 07:36:32;;;;;;;3.53;1.60;;;;;;;19.78;100.00;96202.41;5033121;28;101695;-66
2022/06/21 07:39:05;;;;;;;1.93;1.70;;;;;;;20.11;100.00;96204.44;5035809;27;101673;-64
2022/06/21 07:41:38;;;;;;;4.37;2.27;;;;;;;20.36;100.00;96200.97;5033310;27;101744;-64
2022/06/21 07:44:12;;;;;;;2.90;1.80;;;;;;;20.45;100.00;96204.50;5032894;28;102395;-64
2022/06/21 07:46:43;;;;;;;3.80;1.80;;;;;;;20.56;100.00;96200.38;5032096;27;102530;-64
2022/06/21 07:49:19;;;;;;;5.40;2.23;;;;;;;20.62;100.00;96201.81;5032883;28;101794;-64
2022/06/21 07:51:51;;;;;;;6.53;2.60;;;;;;;20.96;100.00;96195.59;5031094;28;105154;-64
2022/06/21 07:54:23;;;;;;;4.13;2.73;;;;;;;20.56;100.00;96188.75;5031996;27;103182;-64
2022/06/21 07:56:54;;;;;;;6.40;2.73;;;;;;;21.10;100.00;96180.00;5031281;28;101827;-64
2022/06/21 07:59:26;;;;;;;5.07;2.40;;;;;;;21.35;100.00;96187.22;5031298;28;104154;-64
2022/06/21 08:07:32;;;;;;;4.47;2.70;;;;;;;20.91;100.00;96201.97;5031704;27;103058;-64
2022/06/21 08:10:04;;;;;;;6.40;3.17;;;;;;;21.05;100.00;96197.19;5032258;28;101837;-64
2022/06/21 08:12:31;;;;;;;6.23;2.90;;;;;;;21.33;100.00;96208.41;5031152;28;105263;-64
2022/06/21 08:15:00;;;;;;;12.67;4.10;;;;;;;20.91;100.00;96207.38;5031757;27;103007;-64
2022/06/21 08:17:34;;;;;;;7.13;3.43;;;;;;;20.87;100.00;96203.69;5014262;28;102505;-64
2022/06/21 08:20:08;;;;;;;9.53;3.63;;;;;;;21.00;100.00;96202.75;5032437;28;102512;-64
2022/06/21 08:22:46;;;;;;;3.93;3.10;;;;;;;21.51;100.00;96202.63;5035211;28;102677;-64
2022/06/21 08:25:23;;;;;;;10.27;3.47;;;;;;;21.83;100.00;96203.97;5032327;28;102923;-64
2022/06/21 08:27:57;;;;;;;8.23;3.67;;;;;;;21.83;100.00;96207.47;5030229;28;105481;-64
2022/06/21 08:30:30;;;;;;;6.97;3.60;;;;;;;21.81;100.00;96211.63;5031879;28;101702;-64
2022/06/21 08:33:05;;;;;;;6.07;3.37;;;;;;;21.68;100.00;96199.09;5032188;28;102393;-64
2022/06/21 08:35:36;;;;;;;4.67;2.80;;;;;;;22.14;100.00;96207.16;5030122;28;105962;-64
2022/06/21 08:38:09;;;;;;;6.57;3.17;;;;;;;21.99;100.00;96189.56;5030675;28;101953;-64
2022/06/21 08:41:51;;;;;;;6.70;3.30;;;;;;;22.00;100.00;96217.41;5030427;28;103743;-64
2022/06/21 08:44:36;;;;;;;7.07;3.37;;;;;;;22.35;100.00;96214.16;5029111;28;105538;-64
2022/06/21 08:47:34;;;;;;;6.93;3.53;;;;;;;21.94;100.00;96207.88;4985991;27;101931;-64
2022/06/21 08:50:42;;;;;;;8.60;3.10;;;;;;;21.63;100.00;96212.78;4989582;28;103785;-64
2022/06/21 08:53:19;;;;;;;5.43;2.73;;;;;;;22.00;100.00;96212.78;4989477;28;101989;-64
2022/06/21 08:55:55;;;;;;;8.77;2.90;;;;;;;21.16;100.00;96211.97;4972286;28;103650;-65
2022/06/21 08:58:36;;;;;;;6.03;3.20;;;;;;;20.83;100.00;96210.06;4972044;28;104609;-64
2022/06/21 09:01:13;;;;;;;6.30;3.07;;;;;;;21.57;100.00;96208.66;4989153;28;101850;-64
2022/06/21 09:03:54;;;;;;;4.67;3.00;;;;;;;21.63;100.00;96205.44;4972495;28;105954;-64
2022/06/21 09:06:38;;;;;;;7.13;3.57;;;;;;;22.29;100.00;96204.66;4988587;28;102693;-64
2022/06/21 09:09:31;;;;;;;6.13;3.33;;;;;;;22.53;100.00;96204.03;4972413;28;101943;-64
2022/06/21 09:12:07;;;;;;;5.73;3.27;;;;;;;22.63;100.00;96203.66;4992276;28;102357;-64
2022/06/21 09:15:01;;;;;;;6.13;3.47;;;;;;;22.88;100.00;96200.72;4988922;28;101901;-64
2022/06/21 09:17:39;;;;;;;7.50;3.80;;;;;;;22.60;100.00;96199.69;4989078;28;102549;-64
2022/06/21 09:20:17;;;;;;;7.60;3.77;;;;;;;23.01;100.00;96198.88;5004811;28;105602;-64
2022/06/21 09:22:59;;;;;;;4.43;3.07;;;;;;;23.28;100.00;96201.03;4989209;28;101870;-64
2022/06/21 09:25:33;;;;;;;5.83;3.07;;;;;;;23.19;100.00;96203.00;4972186;28;103978;-64
2022/06/21 09:28:06;;;;;;;8.77;3.30;;;;;;;23.96;100.00;96195.59;5023033;28;102796;-64
2022/06/21 09:30:41;;;;;;;5.40;3.17;;;;;;;24.09;100.00;96188.25;5031188;28;101701;-64
2022/06/21 09:33:16;;;;;;;6.33;3.30;;;;;;;24.48;100.00;96195.66;5031108;27;102377;-64
2022/06/21 09:35:47;;;;;;;5.83;3.47;;;;;;;23.98;100.00;96198.75;5033978;28;102643;-64
2022/06/21 09:38:25;;;;;;;5.33;3.00;;;;;;;22.83;100.00;96203.63;5031185;27;102393;-64
2022/06/21 09:41:06;;;;;;;5.50;3.20;;;;;;;22.50;100.00;96207.44;5028943;28;103531;-64
2022/06/21 09:43:48;;;;;;;7.63;3.57;;;;;;;22.58;100.00;96206.56;5029659;28;101813;-64
2022/06/21 09:46:26;;;;;;;4.87;3.30;;;;;;;22.70;100.00;96198.50;5031044;28;102392;-64
2022/06/21 09:49:03;;;;;;;4.73;3.23;;;;;;;22.82;100.00;96209.38;5029090;28;103154;-64
2022/06/21 09:51:40;;;;;;;5.50;3.33;;;;;;;23.40;100.00;96204.56;5029293;28;102217;-64
2022/06/21 09:54:26;;;;;;;6.37;3.37;;;;;;;23.22;100.00;96194.22;5030881;28;102866;-64
2022/06/21 09:57:00;;;;;;;6.20;3.50;;;;;;;23.33;100.00;96206.25;5030158;28;102697;-65
2022/06/21 09:59:33;;;;;;;4.70;2.90;;;;;;;23.94;100.00;96200.59;5033922;28;101869;-64
2022/06/21 10:02:10;;;;;;;5.13;3.73;;;;;;;24.39;100.00;96195.00;5028236;28;105941;-64
2022/06/21 10:04:45;;;;;;;4.87;3.50;;;;;;;24.30;100.00;96191.63;5030631;28;102396;-64
2022/06/21 10:07:21;;;;;;;6.57;3.13;;;;;;;24.72;100.00;96190.19;5030661;27;102821;-64
2022/06/21 10:10:03;;;;;;;5.30;3.20;;;;;;;25.01;100.00;96190.66;5030048;27;102623;-64
2022/06/21 10:12:42;;;;;;;4.77;3.67;;;;;;;25.02;100.00;96194.94;5029076;28;102057;-64
2022/06/21 10:15:30;;;;;;;5.37;3.17;;;;;;;24.75;100.00;96186.78;5029143;28;103584;-64
2022/06/21 10:18:30;;;;;;;5.37;3.13;;;;;;;25.11;100.00;96186.66;5029449;27;102776;-64
2022/06/21 10:21:16;;;;;;;8.10;3.63;;;;;;;25.39;100.00;96190.19;5029211;28;101956;-64
2022/06/21 10:24:10;;;;;;;4.13;2.83;;;;;;;25.66;100.00;96195.56;5033143;27;102418;-64
2022/06/21 10:27:01;;;;;;;6.73;3.20;;;;;;;25.36;100.00;96185.41;5030137;28;101892;-64
2022/06/21 10:29:46;;;;;;;5.43;3.17;;;;;;;25.43;100.00;96197.28;5029026;28;105182;-64
2022/06/21 10:32:30;;;;;;;6.23;3.33;;;;;;;25.62;100.00;96199.34;5028359;28;104842;-64
2022/06/21 10:35:28;;;;;;;5.60;3.83;;;;;;;25.74;100.00;96180.97;5030265;27;101983;-64
2022/06/21 10:38:17;;;;;;;3.23;2.97;;;;;;;25.66;100.00;96173.00;5026802;28;102999;-64
2022/06/21 10:40:54;;;;;;;4.93;3.33;;;;;;;26.40;100.00;96172.81;5028156;28;105770;-64
2022/06/21 10:44:04;;;;;;;3.27;3.07;;;;;;;26.47;100.00;96178.44;5029116;28;101838;-64
2022/06/21 10:46:38;;;;;;;3.63;3.13;;;;;;;26.22;100.00;96175.13;5029256;28;104653;-64
2022/06/21 10:49:24;;;;;;;3.83;3.30;;;;;;;26.11;100.00;96168.66;5028683;28;101964;-64
2022/06/21 10:52:32;;;;;;;3.90;3.60;;;;;;;26.46;100.00;96174.13;5029961;27;102298;-64
2022/06/21 10:55:25;;;;;;;4.27;3.30;;;;;;;26.94;100.00;96173.63;5024197;28;102575;-64
2022/06/21 10:58:02;;;;;;;3.20;2.90;;;;;;;27.22;98.37;96183.19;5029894;28;101869;-64
2022/06/21 11:03:34;;;;;;;4.97;4.10;;;;;;;26.94;95.70;96163.50;5028862;27;103150;-64
2022/06/21 11:06:18;;;;;;;7.03;3.83;;;;;;;26.52;100.00;96156.34;5029859;28;101965;-64
2022/06/21 11:08:57;;;;;;;4.43;3.83;;;;;;;26.89;97.16;96141.97;5028527;28;105103;-64
2022/06/21 11:11:33;;;;;;;3.33;3.03;;;;;;;26.98;99.68;96134.31;5032553;28;102569;-64
2022/06/21 11:14:12;;;;;;;10.93;4.07;;;;;;;27.02;100.00;96146.09;5028666;28;105946;-64
2022/06/21 11:16:48;;;;;;;5.63;3.23;;;;;;;27.12;98.69;96156.44;5029050;28;103097;-64
2022/06/21 11:19:33;;;;;;;4.57;4.10;;;;;;;26.79;96.93;96145.25;5028161;28;101740;-65
2022/06/21 11:22:14;;;;;;;3.73;3.13;;;;;;;26.47;100.00;96143.78;5029628;28;102495;-64
2022/06/21 11:24:54;;;;;;;3.83;3.10;;;;;;;26.87;99.27;96136.06;5027722;28;105414;-64
2022/06/21 11:27:30;;;;;;;4.03;3.50;;;;;;;27.38;94.02;96142.13;5029380;28;101710;-64
2022/06/21 11:30:04;;;;;;;4.47;3.30;;;;;;;26.81;99.28;96134.00;5028475;28;105272;-65
2022/06/21 11:32:39;;;;;;;4.90;3.57;;;;;;;26.98;100.00;96137.06;5027512;28;105537;-64
2022/06/21 11:35:32;;;;;;;4.07;3.77;;;;;;;27.25;98.69;96124.34;5031600;28;102009;-64
2022/06/21 11:38:19;;;;;;;4.07;3.77;;;;;;;26.60;100.00;96119.91;5028288;27;101736;-64
2022/06/21 11:40:54;;;;;;;4.37;3.40;;;;;;;27.34;99.74;96112.03;5030490;28;101815;-64
2022/06/21 11:43:43;;;;;;;3.73;3.43;;;;;;;27.31;95.67;96104.53;5031478;28;105341;-65
2022/06/21 11:46:20;;;;;;;3.93;3.60;;;;;;;26.84;99.95;96097.78;5032212;28;102760;-64
2022/06/21 11:49:08;;;;;;;4.60;3.47;;;;;;;27.26;100.00;96096.69;5032599;28;101743;-65
2022/06/21 11:52:10;;;;;;;4.10;3.67;;;;;;;27.51;99.92;96097.88;5032658;27;102762;-64
2022/06/21 11:54:45;;;;;;;4.23;3.63;;;;;;;27.78;98.42;96105.00;5030493;28;104255;-64
2022/06/21 11:57:18;;;;;;;4.47;4.00;;;;;;;27.43;95.71;96104.38;5031372;28;101865;-64
2022/06/21 11:59:51;;;;;;;5.67;3.70;;;;;;;27.40;96.98;96098.88;5034160;28;105910;-64
2022/06/21 12:02:22;;;;;;;4.60;3.50;;;;;;;27.91;100.00;96094.66;5030953;28;102088;-65
2022/06/21 12:05:02;;;;;;;5.57;4.00;;;;;;;28.16;95.31;96079.41;5032574;27;102764;-64
2022/06/21 12:07:38;;;;;;;4.63;3.73;;;;;;;27.66;99.88;96074.31;5031179;27;104527;-64